Time;durP1;ratioP1;P1;durP2;ratioP2;P2;SDS_P1;SDS_P2;PMS_P1;PMS_P2;Temp;Humidity;BMP_temperature;BMP_pressure;BME280_temperature;BME280_humidity;BME280_pressure;Samples;Min_cycle;Max_cycle;Signal;HPM_P1;HPM_P2
2023/06/18 00:01:00;;;;;;;4.25;4.05;;;;;;;;;;5095350;28;20024;-27
2023/06/18 00:03:26;;;;;;;4.10;3.83;;;;;;;;;;5094987;28;20171;-27
2023/06/18 00:05:56;;;;;;;4.13;3.92;;;;;;;;;;5094759;28;20375;-28
2023/06/18 00:08:22;;;;;;;4.63;4.22;;;;;;;;;;5094929;28;20028;-30
2023/06/18 00:10:49;;;;;;;3.70;3.50;;;;;;;;;;5094942;28;20393;-29
2023/06/18 00:13:15;;;;;;;4.07;3.88;;;;;;;;;;5094880;28;20090;-32
2023/06/18 00:15:41;;;;;;;3.78;3.58;;;;;;;;;;5094821;28;20031;-32
2023/06/18 00:18:07;;;;;;;3.88;3.67;;;;;;;;;;5095071;28;20439;-30
2023/06/18 00:20:33;;;;;;;3.72;3.53;;;;;;;;;;5094750;28;20024;-27
2023/06/18 00:23:00;;;;;;;3.15;3.00;;;;;;;;;;5095073;28;20039;-27
2023/06/18 00:25:27;;;;;;;3.65;3.35;;;;;;;;;;5094576;28;20024;-27
2023/06/18 00:27:53;;;;;;;3.63;3.42;;;;;;;;;;5094746;28;20125;-29
2023/06/18 00:30:19;;;;;;;3.97;3.78;;;;;;;;;;5094977;28;20021;-29
2023/06/18 00:32:45;;;;;;;4.05;3.85;;;;;;;;;;5094882;28;20024;-31
2023/06/18 00:35:12;;;;;;;3.13;3.03;;;;;;;;;;5094946;28;20093;-30
2023/06/18 00:37:39;;;;;;;3.65;3.45;;;;;;;;;;5094851;28;20051;-30
2023/06/18 00:40:06;;;;;;;3.90;3.70;;;;;;;;;;5095170;28;20035;-30
2023/06/18 00:42:32;;;;;;;3.75;3.55;;;;;;;;;;5094482;28;20032;-31
2023/06/18 00:44:58;;;;;;;4.40;4.10;;;;;;;;;;5094776;28;20039;-32
2023/06/18 00:47:26;;;;;;;4.45;4.15;;;;;;;;;;5094512;28;20099;-30
2023/06/18 00:49:55;;;;;;;4.35;4.13;;;;;;;;;;5094588;28;20020;-31
2023/06/18 00:52:23;;;;;;;4.35;4.15;;;;;;;;;;5094449;28;20024;-27
2023/06/18 00:54:50;;;;;;;3.67;3.47;;;;;;;;;;5094396;28;20031;-28
2023/06/18 00:57:20;;;;;;;4.30;4.10;;;;;;;;;;5094422;28;20043;-31
2023/06/18 00:59:50;;;;;;;4.07;3.88;;;;;;;;;;5094473;28;20024;-29
2023/06/18 01:02:23;;;;;;;3.95;3.75;;;;;;;;;;5096149;28;20036;-31
2023/06/18 01:04:53;;;;;;;3.97;3.78;;;;;;;;;;5081591;28;20058;-28
2023/06/18 01:07:22;;;;;;;3.88;3.67;;;;;;;;;;5098315;28;20431;-32
2023/06/18 01:09:55;;;;;;;4.65;4.35;;;;;;;;;;5098295;28;20028;-31
2023/06/18 01:12:21;;;;;;;3.35;3.15;;;;;;;;;;5098635;28;20103;-27
2023/06/18 01:14:50;;;;;;;3.85;3.65;;;;;;;;;;5098415;28;20046;-28
2023/06/18 01:17:18;;;;;;;3.80;3.60;;;;;;;;;;5098089;28;20451;-31
2023/06/18 01:19:49;;;;;;;3.92;3.72;;;;;;;;;;5098358;28;20020;-31
2023/06/18 01:22:26;;;;;;;4.43;4.13;;;;;;;;;;5098437;28;20024;-31
2023/06/18 01:24:54;;;;;;;4.15;3.95;;;;;;;;;;5097875;28;20028;-30
2023/06/18 01:27:21;;;;;;;3.70;3.50;;;;;;;;;;5097897;28;20031;-29
2023/06/18 01:29:54;;;;;;;4.10;3.88;;;;;;;;;;5097953;28;20016;-26
2023/06/18 01:32:21;;;;;;;4.05;3.78;;;;;;;;;;5097792;28;20071;-27
2023/06/18 01:34:47;;;;;;;3.45;3.30;;;;;;;;;;5097735;28;20024;-29
2023/06/18 01:37:16;;;;;;;3.92;3.72;;;;;;;;;;5097764;28;20036;-30
2023/06/18 01:39:52;;;;;;;3.95;3.75;;;;;;;;;;5097669;28;20020;-31
2023/06/18 01:42:20;;;;;;;3.92;3.72;;;;;;;;;;5097881;28;20024;-29
2023/06/18 01:44:48;;;;;;;3.78;3.58;;;;;;;;;;5098014;28;20024;-29
2023/06/18 01:47:15;;;;;;;4.15;3.95;;;;;;;;;;5097552;28;20028;-29
2023/06/18 01:49:43;;;;;;;4.00;3.80;;;;;;;;;;5097772;28;20054;-30
2023/06/18 01:52:12;;;;;;;3.70;3.50;;;;;;;;;;5097408;28;20024;-31
2023/06/18 01:54:39;;;;;;;4.00;3.70;;;;;;;;;;5097359;28;20020;-31
2023/06/18 01:57:05;;;;;;;3.88;3.67;;;;;;;;;;5097335;28;20028;-29
2023/06/18 01:59:32;;;;;;;3.72;3.53;;;;;;;;;;5098093;28;20032;-33
2023/06/18 02:01:58;;;;;;;4.03;3.83;;;;;;;;;;5097457;28;20209;-31
2023/06/18 02:04:24;;;;;;;3.80;3.60;;;;;;;;;;5096963;28;20040;-30
2023/06/18 02:06:50;;;;;;;3.75;3.55;;;;;;;;;;5097165;28;20024;-33
2023/06/18 02:09:18;;;;;;;3.65;3.45;;;;;;;;;;5097350;28;20131;-29
2023/06/18 02:11:44;;;;;;;3.63;3.42;;;;;;;;;;5097136;28;20417;-30
2023/06/18 02:14:10;;;;;;;3.25;3.10;;;;;;;;;;5095847;28;20016;-27
2023/06/18 02:16:36;;;;;;;3.60;3.40;;;;;;;;;;5097293;28;20031;-28
2023/06/18 02:19:02;;;;;;;3.83;3.63;;;;;;;;;;5097211;28;20024;-29
2023/06/18 02:21:28;;;;;;;3.30;3.10;;;;;;;;;;5097200;28;20104;-29
2023/06/18 02:23:55;;;;;;;3.58;3.38;;;;;;;;;;5096750;28;20028;-30
2023/06/18 02:26:21;;;;;;;3.60;3.40;;;;;;;;;;5096837;28;20024;-32
2023/06/18 02:28:47;;;;;;;3.53;3.33;;;;;;;;;;5078930;28;20024;-31
2023/06/18 02:31:13;;;;;;;4.35;4.15;;;;;;;;;;5096723;28;20122;-31
2023/06/18 02:33:39;;;;;;;4.00;3.80;;;;;;;;;;5096699;28;20389;-32
2023/06/18 02:36:05;;;;;;;4.00;3.80;;;;;;;;;;5096623;28;20043;-27
2023/06/18 02:38:31;;;;;;;3.90;3.70;;;;;;;;;;5096863;28;20455;-29
2023/06/18 02:40:57;;;;;;;4.10;3.90;;;;;;;;;;5096536;28;20084;-29
2023/06/18 02:43:25;;;;;;;3.85;3.65;;;;;;;;;;5096406;28;20048;-29
2023/06/18 02:45:52;;;;;;;4.22;4.03;;;;;;;;;;5096606;28;20024;-28
2023/06/18 02:48:18;;;;;;;3.60;3.40;;;;;;;;;;5096645;28;20090;-28
2023/06/18 02:50:44;;;;;;;3.85;3.65;;;;;;;;;;5096559;28;20093;-31
2023/06/18 02:53:10;;;;;;;4.15;3.95;;;;;;;;;;5096459;28;20108;-29
2023/06/18 02:55:36;;;;;;;3.72;3.53;;;;;;;;;;5096223;28;20028;-30
2023/06/18 02:58:03;;;;;;;3.75;3.55;;;;;;;;;;5096171;28;20028;-30
2023/06/18 03:00:30;;;;;;;3.72;3.53;;;;;;;;;;5096162;28;20024;-31
2023/06/18 03:02:56;;;;;;;3.90;3.70;;;;;;;;;;5096281;28;20031;-30
2023/06/18 03:05:22;;;;;;;3.90;3.70;;;;;;;;;;5095918;28;20362;-29
2023/06/18 03:07:48;;;;;;;3.35;3.15;;;;;;;;;;5096293;28;20092;-27
2023/06/18 03:10:14;;;;;;;3.38;3.17;;;;;;;;;;5078140;28;20028;-27
2023/06/18 03:12:40;;;;;;;3.78;3.58;;;;;;;;;;5096218;28;20043;-29
2023/06/18 03:15:06;;;;;;;3.63;3.42;;;;;;;;;;5095873;28;20082;-30
2023/06/18 03:17:33;;;;;;;3.63;3.42;;;;;;;;;;5096109;28;20025;-30
2023/06/18 03:19:59;;;;;;;3.33;3.13;;;;;;;;;;5095823;28;20028;-28
2023/06/18 03:22:25;;;;;;;3.75;3.55;;;;;;;;;;5096556;28;20024;-30
2023/06/18 03:24:52;;;;;;;4.03;3.83;;;;;;;;;;5096049;28;20038;-30
2023/06/18 03:27:19;;;;;;;3.40;3.20;;;;;;;;;;5095962;28;20031;-29
2023/06/18 03:29:45;;;;;;;3.60;3.40;;;;;;;;;;5095608;28;20085;-32
2023/06/18 03:32:11;;;;;;;3.58;3.38;;;;;;;;;;5095523;28;20020;-30
2023/06/18 03:34:38;;;;;;;3.58;3.38;;;;;;;;;;5095806;28;20028;-29
2023/06/18 03:37:04;;;;;;;3.50;3.30;;;;;;;;;;5095493;28;20397;-30
2023/06/18 03:39:30;;;;;;;3.78;3.58;;;;;;;;;;5077535;28;20031;-28
2023/06/18 03:41:56;;;;;;;3.80;3.60;;;;;;;;;;5095523;28;20101;-31
2023/06/18 03:44:23;;;;;;;3.65;3.35;;;;;;;;;;5077413;28;20435;-28
2023/06/18 03:46:49;;;;;;;3.63;3.42;;;;;;;;;;5095306;28;20093;-29
2023/06/18 03:49:15;;;;;;;3.58;3.38;;;;;;;;;;5095215;28;20447;-30
2023/06/18 03:51:41;;;;;;;3.42;3.22;;;;;;;;;;5095503;28;20024;-28
2023/06/18 03:54:07;;;;;;;3.55;3.35;;;;;;;;;;5095361;28;20020;-31
2023/06/18 03:56:34;;;;;;;3.95;3.75;;;;;;;;;;5095400;28;20354;-31
2023/06/18 03:59:00;;;;;;;3.75;3.55;;;;;;;;;;5095381;28;20015;-27
2023/06/18 04:01:27;;;;;;;3.97;3.78;;;;;;;;;;5095371;28;20020;-30
2023/06/18 04:03:53;;;;;;;3.45;3.25;;;;;;;;;;5095026;28;20024;-29
2023/06/18 04:06:19;;;;;;;3.45;3.25;;;;;;;;;;5095517;28;20031;-28
2023/06/18 04:08:45;;;;;;;3.47;3.28;;;;;;;;;;5094963;28;20024;-30
2023/06/18 04:11:11;;;;;;;3.30;3.17;;;;;;;;;;5094976;28;20031;-30
2023/06/18 04:13:37;;;;;;;3.75;3.55;;;;;;;;;;5094850;28;20016;-29
2023/06/18 04:16:03;;;;;;;3.25;3.05;;;;;;;;;;5077531;28;20032;-32
2023/06/18 04:18:30;;;;;;;2.83;2.67;;;;;;;;;;5094852;28;20042;-29
2023/06/18 04:20:56;;;;;;;3.55;3.35;;;;;;;;;;5094821;28;20463;-30
2023/06/18 04:23:22;;;;;;;3.83;3.63;;;;;;;;;;5094795;28;20024;-28
2023/06/18 04:25:48;;;;;;;3.40;3.20;;;;;;;;;;5094919;28;20112;-29
2023/06/18 04:28:14;;;;;;;3.63;3.42;;;;;;;;;;5095021;28;20015;-28
2023/06/18 04:30:40;;;;;;;3.97;3.67;;;;;;;;;;5094718;28;20024;-30
2023/06/18 04:33:08;;;;;;;3.33;3.13;;;;;;;;;;5094619;28;20024;-30
2023/06/18 04:35:34;;;;;;;3.15;2.97;;;;;;;;;;5094913;28;20038;-31
2023/06/18 04:38:00;;;;;;;3.42;3.22;;;;;;;;;;5098151;28;20020;-28
2023/06/18 04:40:26;;;;;;;3.80;3.60;;;;;;;;;;5098842;28;20474;-29
2023/06/18 04:42:52;;;;;;;3.65;3.45;;;;;;;;;;5098777;28;20024;-30
2023/06/18 04:45:18;;;;;;;3.90;3.70;;;;;;;;;;5098939;28;20347;-27
2023/06/18 04:47:44;;;;;;;3.47;3.28;;;;;;;;;;5098732;28;20099;-27
2023/06/18 04:50:11;;;;;;;3.55;3.35;;;;;;;;;;5098986;28;20108;-27
2023/06/18 04:52:37;;;;;;;3.47;3.28;;;;;;;;;;5098842;28;20407;-30
2023/06/18 04:55:04;;;;;;;3.38;3.20;;;;;;;;;;5098882;28;20050;-28
2023/06/18 04:57:31;;;;;;;3.20;3.00;;;;;;;;;;5098846;28;20126;-27
2023/06/18 04:59:57;;;;;;;3.38;3.17;;;;;;;;;;5098761;28;20094;-31
2023/06/18 05:02:23;;;;;;;3.63;3.42;;;;;;;;;;5098384;28;20058;-29
2023/06/18 05:04:50;;;;;;;3.00;2.80;;;;;;;;;;5098105;28;20501;-31
2023/06/18 05:07:17;;;;;;;3.40;3.20;;;;;;;;;;5098375;28;20031;-27
2023/06/18 05:09:43;;;;;;;3.63;3.42;;;;;;;;;;5098579;28;20355;-36
2023/06/18 05:12:10;;;;;;;3.13;3.03;;;;;;;;;;5098539;28;20043;-30
2023/06/18 05:14:36;;;;;;;3.92;3.72;;;;;;;;;;5098201;28;20043;-31
2023/06/18 05:17:02;;;;;;;3.40;3.20;;;;;;;;;;5098160;28;20447;-31
2023/06/18 05:19:28;;;;;;;3.38;3.17;;;;;;;;;;5098429;28;20094;-29
2023/06/18 05:21:54;;;;;;;3.55;3.35;;;;;;;;;;5097971;28;20024;-28
2023/06/18 05:24:20;;;;;;;2.83;2.72;;;;;;;;;;5097886;28;20027;-29
2023/06/18 05:26:46;;;;;;;3.20;3.08;;;;;;;;;;5098289;28;20028;-28
2023/06/18 05:29:13;;;;;;;3.58;3.38;;;;;;;;;;5097971;28;20055;-28
2023/06/18 05:31:39;;;;;;;3.35;3.15;;;;;;;;;;5098120;28;20089;-29
2023/06/18 05:34:05;;;;;;;3.45;3.25;;;;;;;;;;5097828;28;20024;-29
2023/06/18 05:36:31;;;;;;;3.17;2.97;;;;;;;;;;5098116;28;20035;-30
2023/06/18 05:39:02;;;;;;;3.60;3.40;;;;;;;;;;5097804;28;20324;-30
2023/06/18 05:41:28;;;;;;;3.50;3.30;;;;;;;;;;5098032;28;20016;-27
2023/06/18 05:43:54;;;;;;;3.33;3.13;;;;;;;;;;5097619;28;20020;-27
2023/06/18 05:46:20;;;;;;;3.58;3.38;;;;;;;;;;5097835;28;20028;-30
2023/06/18 05:48:46;;;;;;;3.47;3.28;;;;;;;;;;5097468;28;20351;-29
2023/06/18 05:51:12;;;;;;;3.28;3.08;;;;;;;;;;5097827;28;20020;-31
2023/06/18 05:53:39;;;;;;;3.35;3.15;;;;;;;;;;5097400;28;20020;-38
2023/06/18 05:56:05;;;;;;;3.70;3.50;;;;;;;;;;5097434;28;20028;-31
2023/06/18 05:58:31;;;;;;;3.50;3.30;;;;;;;;;;5097321;28;20455;-31
2023/06/18 06:00:57;;;;;;;3.53;3.33;;;;;;;;;;5097614;28;20351;-30
2023/06/18 06:03:23;;;;;;;3.70;3.50;;;;;;;;;;5097426;28;20032;-28
2023/06/18 06:05:50;;;;;;;3.25;3.05;;;;;;;;;;5097072;28;20044;-28
2023/06/18 06:08:16;;;;;;;3.78;3.47;;;;;;;;;;5097163;28;20032;-27
2023/06/18 06:10:43;;;;;;;3.13;2.95;;;;;;;;;;5097142;28;20182;-33
2023/06/18 06:13:10;;;;;;;3.58;3.38;;;;;;;;;;5097311;28;20402;-32
2023/06/18 06:15:37;;;;;;;3.03;2.83;;;;;;;;;;5097022;28;20020;-30
2023/06/18 06:18:03;;;;;;;3.42;3.22;;;;;;;;;;5097028;28;20532;-28
2023/06/18 06:20:29;;;;;;;3.80;3.60;;;;;;;;;;5079159;28;20035;-28
2023/06/18 06:22:55;;;;;;;3.33;3.13;;;;;;;;;;5096983;28;20043;-31
2023/06/18 06:25:21;;;;;;;3.00;2.80;;;;;;;;;;5096814;28;20454;-28
2023/06/18 06:27:47;;;;;;;2.63;2.53;;;;;;;;;;5096844;28;20035;-31
2023/06/18 06:30:13;;;;;;;3.53;3.30;;;;;;;;;;5096808;28;20027;-31
2023/06/18 06:32:40;;;;;;;2.80;2.70;;;;;;;;;;5096691;28;20024;-29
2023/06/18 06:35:06;;;;;;;3.17;2.97;;;;;;;;;;5096944;28;20106;-27
2023/06/18 06:37:32;;;;;;;3.45;3.20;;;;;;;;;;5097227;28;20036;-29
2023/06/18 06:39:59;;;;;;;2.88;2.78;;;;;;;;;;5096566;28;20038;-27
2023/06/18 06:42:25;;;;;;;3.15;3.00;;;;;;;;;;5096705;28;20050;-28
2023/06/18 06:44:52;;;;;;;3.17;3.00;;;;;;;;;;5097170;28;20039;-28
2023/06/18 06:47:18;;;;;;;2.90;2.70;;;;;;;;;;5096743;28;20031;-28
2023/06/18 06:49:45;;;;;;;2.95;2.78;;;;;;;;;;5096969;28;20032;-31
2023/06/18 06:52:11;;;;;;;2.90;2.80;;;;;;;;;;5096533;28;20020;-30
2023/06/18 06:54:37;;;;;;;2.90;2.70;;;;;;;;;;5096615;28;20035;-31
2023/06/18 06:57:04;;;;;;;3.10;2.90;;;;;;;;;;5078457;28;20028;-29
2023/06/18 06:59:30;;;;;;;2.70;2.60;;;;;;;;;;5095926;28;20115;-31
2023/06/18 07:01:57;;;;;;;2.90;2.70;;;;;;;;;;5096346;28;20028;-29
2023/06/18 07:04:23;;;;;;;3.30;3.10;;;;;;;;;;5095845;28;20158;-31
2023/06/18 07:06:50;;;;;;;3.45;3.25;;;;;;;;;;5096092;28;20028;-29
2023/06/18 07:09:16;;;;;;;2.75;2.65;;;;;;;;;;5096552;28;20425;-28
2023/06/18 07:11:43;;;;;;;2.97;2.78;;;;;;;;;;5096002;28;20012;-30
2023/06/18 07:14:10;;;;;;;2.75;2.65;;;;;;;;;;5095785;28;20028;-31
2023/06/18 07:16:36;;;;;;;2.83;2.72;;;;;;;;;;5096110;28;20046;-28
2023/06/18 07:19:03;;;;;;;3.28;3.08;;;;;;;;;;5095800;28;20021;-29
2023/06/18 07:21:30;;;;;;;3.10;2.90;;;;;;;;;;5096014;28;20036;-31
2023/06/18 07:23:56;;;;;;;2.80;2.60;;;;;;;;;;5095599;28;20032;-32
2023/06/18 07:26:22;;;;;;;3.17;2.97;;;;;;;;;;5096136;28;20039;-29
2023/06/18 07:28:48;;;;;;;3.13;2.90;;;;;;;;;;5096203;28;20032;-29
2023/06/18 07:31:15;;;;;;;3.33;3.13;;;;;;;;;;5095646;28;20347;-30
2023/06/18 07:33:41;;;;;;;3.45;3.25;;;;;;;;;;5095559;28;20055;-30
2023/06/18 07:36:07;;;;;;;3.38;3.17;;;;;;;;;;5095794;28;20047;-30
2023/06/18 07:38:33;;;;;;;3.65;3.45;;;;;;;;;;5095761;28;20028;-31
2023/06/18 07:40:59;;;;;;;2.92;2.72;;;;;;;;;;5077527;28;20454;-31
2023/06/18 07:43:25;;;;;;;2.97;2.78;;;;;;;;;;5095578;28;20024;-30
2023/06/18 07:45:51;;;;;;;2.67;2.58;;;;;;;;;;5095331;28;20366;-29
2023/06/18 07:48:18;;;;;;;4.32;4.03;;;;;;;;;;5095295;28;20023;-28
2023/06/18 07:50:45;;;;;;;3.75;3.55;;;;;;;;;;5095513;28;20026;-28
2023/06/18 07:53:11;;;;;;;2.67;2.55;;;;;;;;;;5095184;28;20019;-29
2023/06/18 07:55:37;;;;;;;2.70;2.60;;;;;;;;;;5095220;28;20026;-26
2023/06/18 07:58:03;;;;;;;3.15;2.95;;;;;;;;;;5095177;28;20355;-29
2023/06/18 08:00:29;;;;;;;2.65;2.55;;;;;;;;;;5077243;28;20089;-28
2023/06/18 08:02:55;;;;;;;2.90;2.70;;;;;;;;;;5095839;28;20170;-30
2023/06/18 08:05:22;;;;;;;3.90;3.63;;;;;;;;;;5094873;28;20048;-31
2023/06/18 08:07:48;;;;;;;2.85;2.75;;;;;;;;;;5095030;28;20091;-27
2023/06/18 08:10:14;;;;;;;3.63;3.42;;;;;;;;;;5094935;28;20020;-32
2023/06/18 08:12:40;;;;;;;3.15;2.95;;;;;;;;;;5094285;28;20023;-29
2023/06/18 08:15:07;;;;;;;3.05;2.95;;;;;;;;;;5095184;28;20040;-26
2023/06/18 08:17:33;;;;;;;3.10;2.90;;;;;;;;;;5094875;28;20097;-27
2023/06/18 08:19:59;;;;;;;2.92;2.75;;;;;;;;;;5095124;28;20103;-30
2023/06/18 08:22:26;;;;;;;3.15;2.95;;;;;;;;;;5095020;28;20031;-31
2023/06/18 08:24:52;;;;;;;3.00;2.90;;;;;;;;;;5094696;28;20066;-28
2023/06/18 08:27:18;;;;;;;3.03;2.83;;;;;;;;;;5095036;28;20024;-32
2023/06/18 08:29:44;;;;;;;3.80;3.60;;;;;;;;;;5095010;28;20020;-34
2023/06/18 08:32:10;;;;;;;3.70;3.50;;;;;;;;;;5094632;28;20031;-28
2023/06/18 08:34:42;;;;;;;3.72;3.53;;;;;;;;;;5094964;28;20082;-31
2023/06/18 08:37:08;;;;;;;3.20;3.00;;;;;;;;;;5095021;28;20470;-27
2023/06/18 08:39:34;;;;;;;3.67;3.47;;;;;;;;;;5094697;28;20063;-28
2023/06/18 08:42:00;;;;;;;4.10;3.80;;;;;;;;;;5094624;28;20028;-27
2023/06/18 08:44:33;;;;;;;3.53;3.33;;;;;;;;;;5077019;28;20032;-27
2023/06/18 08:47:01;;;;;;;3.30;3.10;;;;;;;;;;5095174;28;20054;-28
2023/06/18 08:49:27;;;;;;;3.60;3.40;;;;;;;;;;5094566;28;20055;-30
2023/06/18 08:52:07;;;;;;;3.60;3.40;;;;;;;;;;5094487;28;20028;-29
2023/06/18 08:54:34;;;;;;;4.13;3.92;;;;;;;;;;5095108;28;20316;-28
2023/06/18 08:57:09;;;;;;;4.03;3.83;;;;;;;;;;5094825;28;20103;-29
2023/06/18 08:59:37;;;;;;;3.70;3.50;;;;;;;;;;5095002;28;20032;-32
2023/06/18 09:02:04;;;;;;;3.38;3.17;;;;;;;;;;5094702;28;20024;-33
2023/06/18 09:04:31;;;;;;;3.78;3.58;;;;;;;;;;5094325;28;20044;-34
2023/06/18 09:06:58;;;;;;;3.13;2.28;;;;;;;;;;5094381;28;20030;-28
2023/06/18 09:09:25;;;;;;;4.00;3.80;;;;;;;;;;5094682;28;20351;-30
2023/06/18 09:11:51;;;;;;;3.33;3.13;;;;;;;;;;5094322;28;20020;-30
2023/06/18 09:14:17;;;;;;;2.97;2.88;;;;;;;;;;5094357;28;20031;-32
2023/06/18 09:16:43;;;;;;;4.22;3.95;;;;;;;;;;5094291;28;20026;-31
2023/06/18 09:19:10;;;;;;;3.85;3.65;;;;;;;;;;5094825;28;20028;-30
2023/06/18 09:21:38;;;;;;;3.80;3.53;;;;;;;;;;5094534;28;20407;-31
2023/06/18 09:24:08;;;;;;;3.95;3.75;;;;;;;;;;5096961;28;20024;-28
2023/06/18 09:26:35;;;;;;;3.65;3.45;;;;;;;;;;5098634;28;20502;-30
2023/06/18 09:29:08;;;;;;;3.83;3.63;;;;;;;;;;5097982;28;20413;-29
2023/06/18 09:31:41;;;;;;;4.18;3.97;;;;;;;;;;5098255;28;20020;-29
2023/06/18 09:34:13;;;;;;;4.00;3.80;;;;;;;;;;5097791;28;20031;-30
2023/06/18 09:36:43;;;;;;;4.10;3.90;;;;;;;;;;5098085;28;20028;-27
2023/06/18 09:39:19;;;;;;;3.92;3.72;;;;;;;;;;5097809;28;20028;-30
2023/06/18 09:41:46;;;;;;;3.78;3.58;;;;;;;;;;5097779;28;20020;-30
2023/06/18 09:44:13;;;;;;;4.78;4.47;;;;;;;;;;5097557;28;20044;-30
2023/06/18 09:46:43;;;;;;;3.90;3.70;;;;;;;;;;5097878;28;20042;-32
2023/06/18 09:49:09;;;;;;;3.58;3.38;;;;;;;;;;5097597;28;20080;-30
2023/06/18 09:51:40;;;;;;;3.85;3.63;;;;;;;;;;5098051;28;20020;-30
2023/06/18 09:54:07;;;;;;;3.08;2.88;;;;;;;;;;5097695;28;20020;-27
2023/06/18 09:56:33;;;;;;;3.50;3.30;;;;;;;;;;5097688;28;20024;-26
2023/06/18 09:59:01;;;;;;;4.75;4.13;;;;;;;;;;5097413;28;20501;-28
2023/06/18 10:01:29;;;;;;;4.38;4.18;;;;;;;;;;5097594;28;20028;-29
2023/06/18 10:03:56;;;;;;;4.75;4.45;;;;;;;;;;5096961;28;20032;-31
2023/06/18 10:06:22;;;;;;;4.25;4.05;;;;;;;;;;5097465;28;20485;-30
2023/06/18 10:08:53;;;;;;;4.47;4.18;;;;;;;;;;5097211;28;20028;-33
2023/06/18 10:11:21;;;;;;;4.40;4.18;;;;;;;;;;5097475;28;20324;-32
2023/06/18 10:13:48;;;;;;;3.75;3.45;;;;;;;;;;5097569;28;20051;-30
2023/06/18 10:16:15;;;;;;;4.53;4.32;;;;;;;;;;5097313;28;20124;-30
2023/06/18 10:18:51;;;;;;;3.83;3.63;;;;;;;;;;5079184;28;20470;-33
2023/06/18 10:21:18;;;;;;;4.15;3.95;;;;;;;;;;5097298;28;20030;-28
2023/06/18 10:23:47;;;;;;;4.47;4.22;;;;;;;;;;5096780;28;20024;-34
2023/06/18 10:26:13;;;;;;;3.10;2.90;;;;;;;;;;5096821;28;20473;-32
2023/06/18 10:28:39;;;;;;;3.85;3.65;;;;;;;;;;5096883;28;20035;-29
2023/06/18 10:31:06;;;;;;;4.65;4.40;;;;;;;;;;5096824;28;20354;-30
2023/06/18 10:33:34;;;;;;;5.57;5.28;;;;;;;;;;5096988;28;20016;-30
2023/06/18 10:36:00;;;;;;;5.05;4.78;;;;;;;;;;5096029;28;20355;-26
2023/06/18 10:38:27;;;;;;;4.90;4.60;;;;;;;;;;5096640;28;20028;-32
2023/06/18 10:41:06;;;;;;;5.28;4.97;;;;;;;;;;5096610;28;20355;-30
2023/06/18 10:43:32;;;;;;;4.30;4.10;;;;;;;;;;5079200;28;20424;-30
2023/06/18 10:46:10;;;;;;;4.53;4.32;;;;;;;;;;5096319;28;20103;-27
2023/06/18 10:48:36;;;;;;;3.45;3.25;;;;;;;;;;5096756;28;20316;-29
2023/06/18 10:51:16;;;;;;;3.75;3.55;;;;;;;;;;5096335;28;20028;-28
2023/06/18 10:53:43;;;;;;;4.35;4.15;;;;;;;;;;5096216;28;20028;-29
2023/06/18 10:56:09;;;;;;;4.25;4.05;;;;;;;;;;5096228;28;20473;-30
2023/06/18 10:58:39;;;;;;;3.75;3.55;;;;;;;;;;5096498;28;20035;-28
2023/06/18 11:01:05;;;;;;;3.60;3.40;;;;;;;;;;5096236;28;20030;-30
2023/06/18 11:03:35;;;;;;;2.90;2.80;;;;;;;;;;5096208;28;20028;-28
2023/06/18 11:06:02;;;;;;;4.00;3.80;;;;;;;;;;5095836;28;20039;-31
2023/06/18 11:08:32;;;;;;;2.90;2.70;;;;;;;;;;5096058;28;20113;-29
2023/06/18 11:11:10;;;;;;;3.63;3.42;;;;;;;;;;5096848;28;20066;-33
2023/06/18 11:13:37;;;;;;;3.75;3.55;;;;;;;;;;5096123;28;20029;-33
2023/06/18 11:16:06;;;;;;;4.25;4.05;;;;;;;;;;5095909;28;20020;-29
2023/06/18 11:18:33;;;;;;;3.60;3.40;;;;;;;;;;5095856;28;20049;-32
2023/06/18 11:20:59;;;;;;;4.75;4.55;;;;;;;;;;5096116;28;20031;-29
2023/06/18 11:23:27;;;;;;;4.65;4.43;;;;;;;;;;5095725;28;20031;-30
2023/06/18 11:25:54;;;;;;;3.58;3.38;;;;;;;;;;5095938;28;20347;-32
2023/06/18 11:28:21;;;;;;;3.67;3.47;;;;;;;;;;5095678;28;20016;-30
2023/06/18 11:30:58;;;;;;;3.70;3.50;;;;;;;;;;5095656;28;20019;-29
2023/06/18 11:33:28;;;;;;;4.18;3.88;;;;;;;;;;5095535;28;20038;-28
2023/06/18 11:35:55;;;;;;;3.50;3.30;;;;;;;;;;5095861;28;20027;-32
2023/06/18 11:38:22;;;;;;;4.85;4.55;;;;;;;;;;5095512;28;20106;-28
2023/06/18 11:40:51;;;;;;;3.70;3.50;;;;;;;;;;5095469;28;20465;-27
2023/06/18 11:43:18;;;;;;;3.75;3.55;;;;;;;;;;5095320;28;20031;-32
2023/06/18 11:45:48;;;;;;;4.80;4.60;;;;;;;;;;5095143;28;20031;-29
2023/06/18 11:48:16;;;;;;;4.40;4.20;;;;;;;;;;5095362;28;20020;-29
2023/06/18 11:50:43;;;;;;;3.08;2.97;;;;;;;;;;5095593;28;20054;-30
2023/06/18 11:53:11;;;;;;;3.65;3.45;;;;;;;;;;5095374;28;20028;-30
2023/06/18 11:55:37;;;;;;;4.63;4.43;;;;;;;;;;5095220;28;20355;-28
2023/06/18 11:58:05;;;;;;;3.97;3.78;;;;;;;;;;5095138;28;20028;-33
2023/06/18 12:00:31;;;;;;;4.85;4.55;;;;;;;;;;5095472;28;20035;-31
2023/06/18 12:03:03;;;;;;;4.55;4.20;;;;;;;;;;5095038;28;20398;-29
2023/06/18 12:05:38;;;;;;;3.50;3.30;;;;;;;;;;5094892;28;20040;-28
2023/06/18 12:08:11;;;;;;;3.92;3.72;;;;;;;;;;5094963;28;20016;-31
2023/06/18 12:10:38;;;;;;;4.45;4.25;;;;;;;;;;5094895;28;20020;-31
2023/06/18 12:13:23;;;;;;;3.38;3.25;;;;;;;;;;5095184;28;20016;-33
2023/06/18 12:15:53;;;;;;;3.78;3.58;;;;;;;;;;5095507;28;20024;-29
2023/06/18 12:18:28;;;;;;;3.47;3.28;;;;;;;;;;5095198;28;20012;-26
2023/06/18 12:20:54;;;;;;;4.25;3.95;;;;;;;;;;5095071;28;20056;-31
2023/06/18 12:23:22;;;;;;;4.00;3.80;;;;;;;;;;5095113;28;20047;-26
2023/06/18 12:25:49;;;;;;;3.90;3.70;;;;;;;;;;5094778;28;20026;-29
2023/06/18 12:28:15;;;;;;;4.40;4.00;;;;;;;;;;5094814;28;20086;-30
2023/06/18 12:30:41;;;;;;;4.50;4.28;;;;;;;;;;5094756;28;20103;-32
2023/06/18 12:33:15;;;;;;;4.88;4.57;;;;;;;;;;5094714;28;20417;-31
2023/06/18 12:35:50;;;;;;;4.93;4.72;;;;;;;;;;5094937;28;20475;-29
2023/06/18 12:38:17;;;;;;;4.22;4.03;;;;;;;;;;5094683;28;20051;-34
2023/06/18 12:40:47;;;;;;;4.38;4.18;;;;;;;;;;5076938;28;20396;-32
2023/06/18 12:43:15;;;;;;;4.22;4.03;;;;;;;;;;5076838;28;20363;-30
2023/06/18 12:45:42;;;;;;;5.10;4.80;;;;;;;;;;5094812;28;20043;-31
2023/06/18 12:48:15;;;;;;;4.55;4.35;;;;;;;;;;5094840;28;20047;-29
2023/06/18 12:50:51;;;;;;;4.30;4.10;;;;;;;;;;5094885;28;20343;-31
2023/06/18 12:53:24;;;;;;;5.38;5.07;;;;;;;;;;5094763;28;20028;-30
2023/06/18 12:56:10;;;;;;;3.88;3.67;;;;;;;;;;5094521;28;20016;-30
2023/06/18 12:58:36;;;;;;;4.25;4.05;;;;;;;;;;5079639;28;20446;-31
2023/06/18 13:01:03;;;;;;;5.60;5.30;;;;;;;;;;5098534;28;20024;-29
2023/06/18 13:03:30;;;;;;;6.00;5.60;;;;;;;;;;5098363;28;20036;-29
2023/06/18 13:05:58;;;;;;;4.80;4.50;;;;;;;;;;5098176;28;20183;-31
2023/06/18 13:08:24;;;;;;;5.90;5.50;;;;;;;;;;5098621;28;20024;-27
2023/06/18 13:10:51;;;;;;;4.10;3.90;;;;;;;;;;5098639;28;20035;-28
2023/06/18 13:13:18;;;;;;;6.18;5.88;;;;;;;;;;5098343;28;20031;-29
2023/06/18 13:15:45;;;;;;;4.85;4.57;;;;;;;;;;5080409;28;20096;-29
2023/06/18 13:18:11;;;;;;;4.30;4.10;;;;;;;;;;5098176;28;20024;-27
2023/06/18 13:20:38;;;;;;;5.63;5.32;;;;;;;;;;5098446;28;20055;-28
2023/06/18 13:23:04;;;;;;;4.82;4.53;;;;;;;;;;5097999;28;20107;-28
2023/06/18 13:25:31;;;;;;;5.72;5.43;;;;;;;;;;5097995;28;20028;-33
2023/06/18 13:27:57;;;;;;;3.95;3.75;;;;;;;;;;5098324;28;20355;-30
2023/06/18 13:30:23;;;;;;;5.70;5.40;;;;;;;;;;5097917;28;20028;-31
2023/06/18 13:32:51;;;;;;;5.30;5.00;;;;;;;;;;5097849;28;20073;-30
2023/06/18 13:35:17;;;;;;;4.85;4.55;;;;;;;;;;5097814;28;20070;-30
2023/06/18 13:37:44;;;;;;;4.45;4.25;;;;;;;;;;5097780;28;20028;-32
2023/06/18 13:40:10;;;;;;;3.95;3.75;;;;;;;;;;5097770;28;20478;-32
2023/06/18 13:42:37;;;;;;;4.30;4.10;;;;;;;;;;5097601;28;20119;-30
2023/06/18 13:45:04;;;;;;;5.20;4.90;;;;;;;;;;5097873;28;20042;-28
2023/06/18 13:47:30;;;;;;;4.28;3.97;;;;;;;;;;5097932;28;20031;-28
2023/06/18 13:49:56;;;;;;;3.50;3.30;;;;;;;;;;5097889;28;20024;-30
2023/06/18 13:52:23;;;;;;;4.55;4.35;;;;;;;;;;5097514;28;20020;-31
2023/06/18 13:54:49;;;;;;;4.72;4.50;;;;;;;;;;5097498;28;20020;-28
2023/06/18 13:57:18;;;;;;;4.05;3.85;;;;;;;;;;5097463;28;20020;-30
2023/06/18 13:59:44;;;;;;;3.20;3.10;;;;;;;;;;5097361;28;20078;-31
2023/06/18 14:02:12;;;;;;;5.07;4.78;;;;;;;;;;5097581;28;20119;-28
2023/06/18 14:04:39;;;;;;;6.47;6.07;;;;;;;;;;5097044;28;20054;-30
2023/06/18 14:07:07;;;;;;;6.32;6.03;;;;;;;;;;5097187;28;20028;-31
2023/06/18 14:09:33;;;;;;;5.93;5.63;;;;;;;;;;5095774;28;20455;-28
2023/06/18 14:11:59;;;;;;;6.70;6.30;;;;;;;;;;5097129;28;20028;-28
2023/06/18 14:14:25;;;;;;;5.28;4.97;;;;;;;;;;5097737;28;20043;-26
2023/06/18 14:16:52;;;;;;;5.07;4.78;;;;;;;;;;5097404;28;20016;-29
2023/06/18 14:19:18;;;;;;;3.90;3.70;;;;;;;;;;5097384;28;20098;-30
2023/06/18 14:21:44;;;;;;;3.40;3.20;;;;;;;;;;5097023;28;20469;-30
2023/06/18 14:24:10;;;;;;;5.60;5.30;;;;;;;;;;5096930;28;20109;-29
2023/06/18 14:26:36;;;;;;;3.88;3.67;;;;;;;;;;5096837;28;20040;-33
2023/06/18 14:29:03;;;;;;;4.47;4.22;;;;;;;;;;5096892;28;20020;-31
2023/06/18 14:31:29;;;;;;;4.05;3.85;;;;;;;;;;5097099;28;20097;-30
2023/06/18 14:33:55;;;;;;;4.22;4.03;;;;;;;;;;5097233;28;20031;-30
2023/06/18 14:36:22;;;;;;;5.30;5.00;;;;;;;;;;5097531;28;20398;-27
2023/06/18 14:38:48;;;;;;;5.05;4.75;;;;;;;;;;5096686;28;20070;-32
2023/06/18 14:41:14;;;;;;;4.25;4.05;;;;;;;;;;5078789;28;20054;-26
2023/06/18 14:43:44;;;;;;;5.30;5.00;;;;;;;;;;5096511;28;20485;-29